TBPB

Sir Grantley Adams International Airport

Code ICAO TBPB
Code IATA BGI
Nom Sir Grantley Adams International Airport
Emplacement Bridgetown, Christ-Church, BB
Élévation 169 pieds / 51.5 mètres
Latitude 13.07460022
Longitude -59.49250031
METAR TBPB 091000Z 08013KT 9999 SCT018 26/22 Q1013 NOSIG
Informations extras Afficher cartes et CFS
Afficher NOTAMS
Piste Longueur Largeur Surface Élévation
09 11000 ft 150 ft ASP 169 ft
27 11000 ft 150 ft ASP 160 ft